createdAt,value
2023-12-27T00:05:01.000Z,9.29
2023-12-27T00:10:02.262Z,9.30
2023-12-27T00:15:04.147Z,9.24
2023-12-27T00:20:06.404Z,9.15
2023-12-27T00:25:07.794Z,9.02
2023-12-27T00:30:10.077Z,8.88
2023-12-27T00:35:11.632Z,8.77
2023-12-27T00:40:13.135Z,8.72
2023-12-27T00:45:14.371Z,8.69
2023-12-27T00:50:15.832Z,8.72
2023-12-27T00:55:17.098Z,8.76
2023-12-27T01:00:18.519Z,8.71
2023-12-27T01:05:19.730Z,8.63
2023-12-27T01:10:21.081Z,8.51
2023-12-27T01:15:22.261Z,8.42
2023-12-27T01:20:23.623Z,8.36
2023-12-27T01:25:24.883Z,8.34
2023-12-27T01:30:26.111Z,8.28
2023-12-27T01:35:27.586Z,8.18
2023-12-27T01:40:28.882Z,8.05
2023-12-27T01:45:30.232Z,7.96
2023-12-27T01:50:31.519Z,7.87
2023-12-27T01:55:32.781Z,7.79
2023-12-27T02:00:36.248Z,7.80
2023-12-27T02:05:38.224Z,7.81
2023-12-27T02:10:39.448Z,7.76
2023-12-27T02:15:40.866Z,7.66
2023-12-27T02:20:42.103Z,7.58
2023-12-27T02:25:43.315Z,7.46
2023-12-27T02:30:44.857Z,7.37
2023-12-27T02:35:46.576Z,7.34
2023-12-27T02:40:47.841Z,7.32
2023-12-27T02:45:49.211Z,7.35
2023-12-27T02:50:50.464Z,7.42
2023-12-27T02:55:51.745Z,7.43
2023-12-27T03:00:53.150Z,7.42
2023-12-27T03:05:54.929Z,7.36
2023-12-27T03:10:56.343Z,7.25
2023-12-27T03:15:57.510Z,7.14
2023-12-27T03:20:59.314Z,7.09
2023-12-27T03:26:00.770Z,7.08
2023-12-27T03:31:02.258Z,7.13
2023-12-27T03:36:04.342Z,7.16
2023-12-27T03:41:05.664Z,7.12
2023-12-27T03:46:06.918Z,7.06
2023-12-27T03:51:08.214Z,6.97
2023-12-27T03:56:09.924Z,6.88
2023-12-27T04:01:11.523Z,6.81
2023-12-27T04:06:17.361Z,6.77
2023-12-27T04:11:18.426Z,6.76
2023-12-27T04:16:19.738Z,6.74
2023-12-27T04:21:20.885Z,6.67
2023-12-27T04:26:22.264Z,6.62
2023-12-27T04:31:23.553Z,6.54
2023-12-27T04:36:24.847Z,6.40
2023-12-27T04:41:26.055Z,6.29
2023-12-27T04:46:27.313Z,6.23
2023-12-27T04:51:29.823Z,6.21
2023-12-27T04:56:31.286Z,6.25
2023-12-27T05:01:32.755Z,6.32
2023-12-27T05:06:33.924Z,6.37
2023-12-27T05:11:35.102Z,6.37
2023-12-27T05:16:36.541Z,6.38
2023-12-27T05:21:37.824Z,6.32
2023-12-27T05:26:39.059Z,6.25
2023-12-27T05:31:40.484Z,6.19
2023-12-27T05:36:41.821Z,6.15
2023-12-27T05:41:43.175Z,6.13
2023-12-27T05:46:44.482Z,6.05
2023-12-27T05:51:45.714Z,5.97
2023-12-27T05:56:47.108Z,5.89
2023-12-27T06:01:49.356Z,5.85
2023-12-27T06:06:50.651Z,5.79
2023-12-27T06:11:52.092Z,5.70
2023-12-27T06:16:53.352Z,5.72
2023-12-27T06:21:54.725Z,5.79
2023-12-27T06:26:55.788Z,5.89
2023-12-27T06:31:56.933Z,5.99
2023-12-27T06:36:58.281Z,6.10
2023-12-27T06:41:59.617Z,6.21
2023-12-27T06:47:01.029Z,6.34
2023-12-27T06:52:02.404Z,6.48
2023-12-27T06:57:03.937Z,6.64
2023-12-27T07:02:05.235Z,6.89
2023-12-27T07:07:06.490Z,7.13
2023-12-27T07:12:07.789Z,7.34
2023-12-27T07:17:09.229Z,7.56
2023-12-27T07:22:10.491Z,7.78
2023-12-27T07:27:11.670Z,7.98
2023-12-27T07:32:13.032Z,8.10
2023-12-27T07:37:14.281Z,8.22
2023-12-27T07:42:15.544Z,8.33
2023-12-27T07:47:16.909Z,8.38
2023-12-27T07:52:18.274Z,8.52
2023-12-27T07:57:19.447Z,8.72
2023-12-27T08:02:20.596Z,8.96
2023-12-27T08:07:21.768Z,9.12
2023-12-27T08:12:23.084Z,9.29
2023-12-27T08:17:24.545Z,9.45
2023-12-27T08:22:26.072Z,9.60
2023-12-27T08:27:27.250Z,9.75
2023-12-27T08:32:28.539Z,9.96
2023-12-27T08:37:29.968Z,10.19
2023-12-27T08:42:31.172Z,10.41
2023-12-27T08:47:32.513Z,10.58
2023-12-27T08:52:33.854Z,10.80
2023-12-27T08:57:35.359Z,11.02
2023-12-27T09:02:40.382Z,11.13
2023-12-27T09:07:41.656Z,11.24
2023-12-27T09:12:43.051Z,11.27
2023-12-27T09:17:44.333Z,11.37
2023-12-27T09:22:45.747Z,11.56
2023-12-27T09:27:47.271Z,11.75
2023-12-27T09:32:48.753Z,12.20
2023-12-27T09:37:50.653Z,13.80
2023-12-27T09:42:51.934Z,15.04
2023-12-27T09:47:53.303Z,15.25
2023-12-27T09:52:54.759Z,14.79
2023-12-27T09:57:56.218Z,14.32
2023-12-27T10:02:58.528Z,14.00
2023-12-27T10:08:00.025Z,13.76
2023-12-27T10:13:01.349Z,13.58
2023-12-27T10:18:03.258Z,13.49
2023-12-27T10:23:07.357Z,13.50
2023-12-27T10:28:08.453Z,13.54
2023-12-27T10:33:10.821Z,13.55
2023-12-27T10:38:14.229Z,13.57
2023-12-27T10:43:15.584Z,13.57
2023-12-27T10:48:17.091Z,13.58
2023-12-27T10:53:19.877Z,13.61
2023-12-27T10:58:21.633Z,13.63
2023-12-27T11:03:23.389Z,13.68
2023-12-27T11:08:25.388Z,13.78
2023-12-27T11:13:26.777Z,13.89
2023-12-27T11:18:28.279Z,14.01
2023-12-27T11:23:29.495Z,14.12
2023-12-27T11:28:33.332Z,14.20
2023-12-27T11:33:35.100Z,14.30
2023-12-27T11:38:36.882Z,14.37
2023-12-27T11:43:52.169Z,14.42
2023-12-27T11:48:53.605Z,14.43
2023-12-27T11:53:54.893Z,14.49
2023-12-27T11:58:55.942Z,14.55
2023-12-27T12:04:06.350Z,14.62
2023-12-27T12:09:07.784Z,14.75
2023-12-27T12:14:09.056Z,14.90
2023-12-27T12:19:10.651Z,15.08
2023-12-27T12:24:11.949Z,15.23
2023-12-27T12:29:13.272Z,15.33
2023-12-27T12:34:14.523Z,15.40
2023-12-27T12:39:15.847Z,15.74
2023-12-27T12:44:17.156Z,16.32
2023-12-27T12:49:18.722Z,17.26
2023-12-27T12:54:20.241Z,18.78
2023-12-27T12:59:21.611Z,20.37
2023-12-27T13:04:23.571Z,21.55
2023-12-27T13:09:24.937Z,22.34
2023-12-27T13:14:26.483Z,22.82
2023-12-27T13:19:27.837Z,22.12
2023-12-27T13:24:29.334Z,20.41
2023-12-27T13:29:30.576Z,18.97
2023-12-27T13:34:31.829Z,17.88
2023-12-27T13:39:33.134Z,17.02
2023-12-27T13:44:34.464Z,16.24
2023-12-27T13:49:35.899Z,15.61
2023-12-27T13:54:37.796Z,15.03
2023-12-27T13:59:39.528Z,14.52
2023-12-27T14:04:40.802Z,14.08
2023-12-27T14:09:42.207Z,13.69
2023-12-27T14:14:43.403Z,13.37
2023-12-27T14:19:45.286Z,13.07
2023-12-27T14:24:46.755Z,12.78
2023-12-27T14:29:48.038Z,12.54
2023-12-27T14:34:49.545Z,12.34
2023-12-27T14:39:51.039Z,12.17
2023-12-27T14:44:52.504Z,12.01
2023-12-27T14:49:53.971Z,11.79
2023-12-27T14:54:55.442Z,11.52
2023-12-27T14:59:56.808Z,11.30
2023-12-27T15:04:58.258Z,11.07
2023-12-27T15:09:59.897Z,10.82
2023-12-27T15:15:01.227Z,10.60
2023-12-27T15:20:02.468Z,10.37
2023-12-27T15:25:04.869Z,10.14
2023-12-27T15:30:11.153Z,9.98
2023-12-27T15:35:12.722Z,9.88
2023-12-27T15:40:15.013Z,9.78
2023-12-27T15:45:16.423Z,9.68
2023-12-27T15:50:17.847Z,9.55
2023-12-27T15:55:19.116Z,9.43
2023-12-27T16:00:20.527Z,9.34
2023-12-27T16:05:21.995Z,9.24
2023-12-27T16:10:25.703Z,9.10
2023-12-27T16:15:27.601Z,8.96
2023-12-27T16:20:29.101Z,8.83
2023-12-27T16:25:30.622Z,8.77
2023-12-27T16:30:31.848Z,8.74
2023-12-27T16:35:33.212Z,8.70
2023-12-27T16:40:34.380Z,8.64
2023-12-27T16:45:35.735Z,8.53
2023-12-27T16:50:37.219Z,8.41
2023-12-27T16:55:38.368Z,8.32
2023-12-27T17:00:39.925Z,8.32
2023-12-27T17:05:41.382Z,8.36
2023-12-27T17:10:42.671Z,8.41
2023-12-27T17:15:44.077Z,8.46
2023-12-27T17:20:45.517Z,8.52
2023-12-27T17:25:46.674Z,8.57
2023-12-27T17:30:48.043Z,8.53
2023-12-27T17:35:49.491Z,8.47
2023-12-27T17:40:50.768Z,8.39
2023-12-27T17:45:52.525Z,8.27
2023-12-27T17:50:53.913Z,8.17
2023-12-27T17:55:55.167Z,8.11
2023-12-27T18:00:56.321Z,8.09
2023-12-27T18:05:57.612Z,8.13
2023-12-27T18:10:59.067Z,8.21
2023-12-27T18:16:00.332Z,8.25
2023-12-27T18:21:01.600Z,8.23
2023-12-27T18:26:03.370Z,8.16
2023-12-27T18:31:04.652Z,8.08
2023-12-27T18:36:06.642Z,8.02
2023-12-27T18:41:07.797Z,7.95
2023-12-27T18:46:09.037Z,7.90
2023-12-27T18:51:13.016Z,7.88
2023-12-27T18:56:14.861Z,7.89
2023-12-27T19:01:16.221Z,7.91
2023-12-27T19:06:17.595Z,7.88
2023-12-27T19:11:18.862Z,7.82
2023-12-27T19:16:20.321Z,7.72
2023-12-27T19:21:21.699Z,7.63
2023-12-27T19:26:23.272Z,7.51
2023-12-27T19:31:24.600Z,7.39
2023-12-27T19:36:26.025Z,7.31
2023-12-27T19:41:27.332Z,7.29
2023-12-27T19:46:28.814Z,7.28
2023-12-27T19:51:30.130Z,7.28
2023-12-27T19:56:31.427Z,7.22
2023-12-27T20:01:32.768Z,7.14
2023-12-27T20:06:34.096Z,7.04
2023-12-27T20:11:35.442Z,6.93
2023-12-27T20:16:36.708Z,6.84
2023-12-27T20:21:38.104Z,6.82
2023-12-27T20:26:39.286Z,6.81
2023-12-27T20:31:40.646Z,6.80
2023-12-27T20:36:42.139Z,6.75
2023-12-27T20:41:43.524Z,6.69
2023-12-27T20:46:44.916Z,6.57
2023-12-27T20:51:47.319Z,6.44
2023-12-27T20:56:49.002Z,6.32
2023-12-27T21:01:50.419Z,6.22
2023-12-27T21:06:52.087Z,6.11
2023-12-27T21:11:53.588Z,6.05
2023-12-27T21:16:54.947Z,6.06
2023-12-27T21:21:56.039Z,6.08
2023-12-27T21:26:57.196Z,6.08
2023-12-27T21:31:59.670Z,6.04
2023-12-27T21:37:01.140Z,5.97
2023-12-27T21:42:02.600Z,5.87
2023-12-27T21:47:03.757Z,5.75
2023-12-27T21:52:05.159Z,5.61
2023-12-27T21:57:07.303Z,5.50
2023-12-27T22:02:08.632Z,5.44
2023-12-27T22:07:11.231Z,5.40
2023-12-27T22:12:13.606Z,5.39
2023-12-27T22:17:14.830Z,5.35
2023-12-27T22:22:16.026Z,5.30
2023-12-27T22:27:17.291Z,5.23
2023-12-27T22:32:18.531Z,5.11
2023-12-27T22:37:19.577Z,5.02
2023-12-27T22:42:20.876Z,4.92
2023-12-27T22:47:22.016Z,4.83
2023-12-27T22:52:23.161Z,4.79
2023-12-27T22:57:24.438Z,4.77
2023-12-27T23:02:25.669Z,4.75
2023-12-27T23:07:26.952Z,4.70
2023-12-27T23:12:28.329Z,4.64
2023-12-27T23:17:29.819Z,4.55
2023-12-27T23:22:31.264Z,4.47
2023-12-27T23:27:32.677Z,4.38
2023-12-27T23:32:42.019Z,4.26
2023-12-27T23:37:49.306Z,4.16
2023-12-27T23:42:50.644Z,4.12
2023-12-27T23:47:52.173Z,4.10
2023-12-27T23:52:53.490Z,4.09
2023-12-27T23:57:54.780Z,4.08
